Time;durP1;ratioP1;P1;durP2;ratioP2;P2;SDS_P1;SDS_P2;PMS_P1;PMS_P2;Temp;Humidity;BMP_temperature;BMP_pressure;BME280_temperature;BME280_humidity;BME280_pressure;Samples;Min_cycle;Max_cycle;Signal;HPM_P1;HPM_P2
2023/10/25 00:04:38;;;;;;;;;;;;;;;17.58;59.30;98411.88;10369430;28;870;-74
2023/10/25 00:09:34;;;;;;;;;;;;;;;17.57;59.42;98415.47;10369901;28;892;-75
2023/10/25 00:14:30;;;;;;;;;;;;;;;17.55;59.31;98409.44;10368465;28;1941;-75
2023/10/25 00:19:26;;;;;;;;;;;;;;;17.53;59.40;98404.28;10368929;28;868;-75
2023/10/25 00:24:22;;;;;;;;;;;;;;;17.51;59.48;98399.09;10368669;28;883;-75
2023/10/25 00:29:18;;;;;;;;;;;;;;;17.51;59.34;98403.53;10368892;28;1076;-75
2023/10/25 00:34:13;;;;;;;;;;;;;;;17.52;59.36;98397.31;10367741;28;1910;-75
2023/10/25 00:39:09;;;;;;;;;;;;;;;17.49;59.27;98403.63;10367431;28;845;-75
2023/10/25 00:44:05;;;;;;;;;;;;;;;17.49;59.16;98400.16;10367471;28;933;-75
2023/10/25 00:49:01;;;;;;;;;;;;;;;17.47;59.40;98407.28;10368346;28;841;-75
2023/10/25 00:53:57;;;;;;;;;;;;;;;17.47;59.52;98396.75;10368292;28;1894;-75
2023/10/25 00:58:53;;;;;;;;;;;;;;;17.46;59.51;98408.25;10368050;28;708;-75
2023/10/25 01:03:49;;;;;;;;;;;;;;;17.44;59.52;98407.50;10367308;28;859;-75
2023/10/25 01:08:45;;;;;;;;;;;;;;;17.43;59.53;98411.94;10367162;28;811;-75
2023/10/25 01:13:41;;;;;;;;;;;;;;;17.43;59.53;98408.44;10366978;28;1943;-75
2023/10/25 01:18:37;;;;;;;;;;;;;;;17.42;59.35;98398.84;10366299;28;920;-75
2023/10/25 01:23:33;;;;;;;;;;;;;;;17.41;59.40;98399.78;10366773;28;767;-75
2023/10/25 01:28:29;;;;;;;;;;;;;;;17.40;59.64;98392.84;10366596;28;779;-75
2023/10/25 01:33:24;;;;;;;;;;;;;;;17.39;59.44;98401.66;10366271;28;1918;-74
2023/10/25 01:38:20;;;;;;;;;;;;;;;17.38;59.40;98397.34;10366968;28;900;-75
2023/10/25 01:43:16;;;;;;;;;;;;;;;17.37;59.55;98385.09;10366619;28;862;-75
2023/10/25 01:48:12;;;;;;;;;;;;;;;17.36;59.55;98388.69;10370708;28;790;-74
2023/10/25 01:53:08;;;;;;;;;;;;;;;17.34;59.49;98388.78;10374685;28;1910;-74
2023/10/25 01:58:04;;;;;;;;;;;;;;;17.34;59.43;98382.69;10374430;28;844;-75
2023/10/25 02:03:00;;;;;;;;;;;;;;;17.33;59.57;98386.25;10375006;28;925;-75
2023/10/25 02:07:56;;;;;;;;;;;;;;;17.32;59.55;98377.53;10374113;28;871;-75
2023/10/25 02:12:52;;;;;;;;;;;;;;;17.30;59.59;98366.22;10373844;28;1890;-75
2023/10/25 02:17:47;;;;;;;;;;;;;;;17.30;59.46;98363.59;10373749;28;869;-75
2023/10/25 02:22:43;;;;;;;;;;;;;;;17.29;59.43;98356.63;10372953;28;850;-75
2023/10/25 02:27:39;;;;;;;;;;;;;;;17.28;59.40;98358.41;10372723;28;949;-75
2023/10/25 02:32:35;;;;;;;;;;;;;;;17.27;59.73;98356.75;10372364;28;1976;-75
2023/10/25 02:37:31;;;;;;;;;;;;;;;17.25;59.62;98348.09;10373015;28;819;-75
2023/10/25 02:42:27;;;;;;;;;;;;;;;17.24;59.71;98346.41;10372762;28;774;-75
2023/10/25 02:47:23;;;;;;;;;;;;;;;17.25;59.65;98341.97;10373158;28;873;-75
2023/10/25 02:52:18;;;;;;;;;;;;;;;17.23;59.57;98338.59;10372474;28;1958;-75
2023/10/25 02:57:14;;;;;;;;;;;;;;;17.22;59.63;98334.28;10371862;28;995;-75
2023/10/25 03:02:10;;;;;;;;;;;;;;;17.20;59.54;98326.47;10371272;28;775;-75
2023/10/25 03:07:06;;;;;;;;;;;;;;;17.20;59.80;98320.34;10371959;28;963;-75
2023/10/25 03:12:02;;;;;;;;;;;;;;;17.18;59.51;98323.06;10371524;28;1956;-75
2023/10/25 03:16:59;;;;;;;;;;;;;;;17.18;59.58;98314.34;10372008;28;858;-75
2023/10/25 03:21:55;;;;;;;;;;;;;;;17.18;59.56;98314.34;10371178;28;894;-75
2023/10/25 03:26:51;;;;;;;;;;;;;;;17.16;59.55;98313.59;10371112;28;829;-74
2023/10/25 03:31:47;;;;;;;;;;;;;;;17.15;59.56;98298.75;10371500;28;1906;-75
2023/10/25 03:36:43;;;;;;;;;;;;;;;17.14;59.69;98286.53;10370692;28;790;-75
2023/10/25 03:41:40;;;;;;;;;;;;;;;17.13;59.66;98285.66;10370421;28;973;-75
2023/10/25 03:46:36;;;;;;;;;;;;;;;17.12;59.64;98278.72;10370285;28;898;-75
2023/10/25 03:51:32;;;;;;;;;;;;;;;17.11;59.79;98269.13;10369377;28;1951;-75
2023/10/25 03:56:28;;;;;;;;;;;;;;;17.09;59.80;98261.31;10369900;28;802;-75
2023/10/25 04:01:24;;;;;;;;;;;;;;;17.09;59.81;98256.06;10370307;28;848;-75
2023/10/25 04:06:19;;;;;;;;;;;;;;;17.09;59.64;98263.13;10370725;28;841;-75
2023/10/25 04:11:15;;;;;;;;;;;;;;;17.07;59.77;98260.56;10368882;28;1894;-75
2023/10/25 04:16:11;;;;;;;;;;;;;;;17.07;59.78;98249.22;10369107;28;826;-75
2023/10/25 04:21:07;;;;;;;;;;;;;;;17.12;59.63;98247.13;10368966;28;875;-75
2023/10/25 04:26:03;;;;;;;;;;;;;;;17.19;59.24;98247.59;10335639;28;1276;-75
2023/10/25 04:30:59;;;;;;;;;;;;;;;17.20;59.15;98244.84;10327302;28;1967;-75
2023/10/25 04:35:56;;;;;;;;;;;;;;;17.25;59.21;98247.19;10327109;28;911;-75
2023/10/25 04:40:52;;;;;;;;;;;;;;;17.29;59.17;98248.66;10327461;28;865;-75
2023/10/25 04:45:48;;;;;;;;;;;;;;;17.36;59.04;98241.22;10327920;28;875;-74
2023/10/25 04:50:44;;;;;;;;;;;;;;;17.43;58.72;98245.13;10326744;28;1937;-75
2023/10/25 04:55:40;;;;;;;;;;;;;;;17.45;58.87;98243.25;10326400;28;814;-75
2023/10/25 05:00:36;;;;;;;;;;;;;;;17.52;58.44;98236.63;10325637;28;928;-75
2023/10/25 05:05:32;;;;;;;;;;;;;;;17.54;58.46;98232.09;10326120;28;959;-75
2023/10/25 05:10:28;;;;;;;;;;;;;;;17.57;58.46;98221.34;10326548;28;1890;-76
2023/10/25 05:15:25;;;;;;;;;;;;;;;17.62;58.24;98207.88;10326475;28;842;-73
2023/10/25 05:20:21;;;;;;;;;;;;;;;17.64;58.11;98193.66;10325709;28;886;-73
2023/10/25 05:25:16;;;;;;;;;;;;;;;17.64;58.24;98196.28;10325262;28;811;-73
2023/10/25 05:30:14;;;;;;;;;;;;;;;17.67;58.03;98198.72;10326023;28;1910;-74
2023/10/25 05:35:11;;;;;;;;;;;;;;;17.69;58.08;98188.91;10283863;28;1076;-73
2023/10/25 05:40:07;;;;;;;;;;;;;;;17.70;58.34;98190.59;10284496;28;866;-71
2023/10/25 05:45:03;;;;;;;;;;;;;;;17.70;58.14;98182.69;10285030;28;764;-77
2023/10/25 05:49:59;;;;;;;;;;;;;;;17.73;58.17;98187.75;10285316;28;1984;-73
2023/10/25 05:54:55;;;;;;;;;;;;;;;17.73;58.07;98185.09;10284282;28;801;-73
2023/10/25 05:59:50;;;;;;;;;;;;;;;17.73;58.10;98179.84;10284282;28;850;-72
2023/10/25 06:04:46;;;;;;;;;;;;;;;17.74;58.10;98180.72;10283985;28;759;-72
2023/10/25 06:09:42;;;;;;;;;;;;;;;17.74;58.11;98184.19;10284011;28;822;-72
2023/10/25 06:14:38;;;;;;;;;;;;;;;17.72;58.20;98185.22;10284633;28;1885;-72
2023/10/25 06:19:34;;;;;;;;;;;;;;;17.68;58.10;98184.59;10284380;28;826;-72
2023/10/25 06:24:30;;;;;;;;;;;;;;;17.66;58.25;98185.66;10282557;28;1099;-69
2023/10/25 06:29:26;;;;;;;;;;;;;;;17.74;58.31;98184.19;10293633;28;1192;-75
2023/10/25 06:34:22;;;;;;;;;;;;;;;17.77;58.19;98172.59;10324968;28;1909;-73
2023/10/25 06:39:18;;;;;;;;;;;;;;;17.78;58.79;98165.53;10328533;28;1077;-75
2023/10/25 06:44:13;;;;;;;;;;;;;;;17.74;58.69;98154.34;10329540;28;870;-72
2023/10/25 06:49:09;;;;;;;;;;;;;;;17.69;58.81;98146.75;10331220;28;865;-72
2023/10/25 06:54:05;;;;;;;;;;;;;;;17.69;58.70;98136.22;10331039;28;1955;-72
2023/10/25 06:59:01;;;;;;;;;;;;;;;17.70;58.63;98130.00;10330793;28;885;-72
2023/10/25 07:03:57;;;;;;;;;;;;;;;17.70;58.67;98132.63;10330709;28;929;-71
2023/10/25 07:08:53;;;;;;;;;;;;;;;17.71;58.74;98112.38;10329895;28;864;-72
2023/10/25 07:13:49;;;;;;;;;;;;;;;17.73;58.67;98107.84;10329420;28;1973;-71
2023/10/25 07:18:46;;;;;;;;;;;;;;;17.73;58.54;98095.50;10329811;28;826;-71
2023/10/25 07:23:42;;;;;;;;;;;;;;;17.75;58.53;98085.72;10329937;28;882;-71
2023/10/25 07:28:38;;;;;;;;;;;;;;;17.78;58.50;98076.75;10330389;28;743;-71
2023/10/25 07:33:34;;;;;;;;;;;;;;;17.76;58.42;98078.66;10328772;28;1910;-72
2023/10/25 07:38:30;;;;;;;;;;;;;;;17.79;58.48;98080.22;10329489;28;819;-71
2023/10/25 07:43:26;;;;;;;;;;;;;;;17.83;58.25;98073.84;10329220;28;889;-71
2023/10/25 07:48:22;;;;;;;;;;;;;;;17.81;58.40;98059.91;10328386;28;1268;-71
2023/10/25 07:53:17;;;;;;;;;;;;;;;17.80;58.49;98045.91;10328788;28;1894;-71
2023/10/25 07:58:14;;;;;;;;;;;;;;;17.84;58.17;98028.94;10328677;28;826;-71
2023/10/25 08:03:12;;;;;;;;;;;;;;;17.85;58.12;98019.22;10328222;28;894;-72
2023/10/25 08:08:08;;;;;;;;;;;;;;;17.84;58.15;98021.03;10328863;28;837;-72
2023/10/25 08:13:04;;;;;;;;;;;;;;;17.87;58.06;98014.69;10327945;28;1889;-73
2023/10/25 08:18:00;;;;;;;;;;;;;;;17.87;58.20;98007.63;10328335;28;809;-73
2023/10/25 08:22:56;;;;;;;;;;;;;;;17.86;58.09;98005.94;10328235;28;861;-73
2023/10/25 08:27:52;;;;;;;;;;;;;;;17.85;58.09;98003.41;10327340;28;770;-73
2023/10/25 08:32:48;;;;;;;;;;;;;;;17.87;58.26;97993.63;10326749;28;1918;-73
2023/10/25 08:37:44;;;;;;;;;;;;;;;17.88;57.95;97990.84;10327566;28;794;-73
2023/10/25 08:42:40;;;;;;;;;;;;;;;17.85;58.12;97988.44;10326865;28;872;-72
2023/10/25 08:47:35;;;;;;;;;;;;;;;17.85;58.21;97988.44;10327270;28;818;-73
2023/10/25 08:52:31;;;;;;;;;;;;;;;17.88;58.04;97984.75;10326470;28;1957;-73
2023/10/25 08:57:27;;;;;;;;;;;;;;;17.84;58.10;97981.50;10325234;28;932;-73
2023/10/25 09:02:23;;;;;;;;;;;;;;;17.87;57.97;97983.06;10326219;28;766;-72
2023/10/25 09:07:19;;;;;;;;;;;;;;;17.88;57.88;97982.94;10326764;28;888;-72
2023/10/25 09:12:15;;;;;;;;;;;;;;;17.90;58.05;97970.50;10325892;28;1894;-73
2023/10/25 09:17:11;;;;;;;;;;;;;;;17.90;57.93;97961.75;10325228;28;923;-73
2023/10/25 09:22:06;;;;;;;;;;;;;;;17.91;57.79;97952.88;10325810;28;822;-73
2023/10/25 09:27:02;;;;;;;;;;;;;;;17.91;57.95;97953.72;10325487;28;912;-73
2023/10/25 09:31:58;;;;;;;;;;;;;;;17.89;57.95;97941.59;10325359;28;1911;-71
2023/10/25 09:36:54;;;;;;;;;;;;;;;18.05;57.80;97931.66;10324879;28;833;-70
2023/10/25 09:41:52;;;;;;;;;;;;;;;18.14;57.97;97922.22;10325304;28;829;-71
2023/10/25 09:46:48;;;;;;;;;;;;;;;18.17;57.88;97912.28;10325481;28;868;-69
2023/10/25 09:51:44;;;;;;;;;;;;;;;18.15;57.91;97914.19;10324997;28;1963;-69
2023/10/25 09:56:40;;;;;;;;;;;;;;;18.18;58.08;97906.06;10324988;28;863;-69
2023/10/25 10:01:36;;;;;;;;;;;;;;;18.20;58.15;97887.47;10324935;28;802;-69
2023/10/25 10:06:32;;;;;;;;;;;;;;;18.19;58.15;97864.72;10324820;28;774;-69
2023/10/25 10:11:27;;;;;;;;;;;;;;;18.18;58.28;97842.78;10331888;28;1967;-70
2023/10/25 10:16:23;;;;;;;;;;;;;;;18.23;58.23;97852.13;10332601;28;1217;-69
2023/10/25 10:21:20;;;;;;;;;;;;;;;18.20;58.29;97840.00;10332989;28;771;-69
2023/10/25 10:26:15;;;;;;;;;;;;;;;18.19;58.23;97830.44;10331527;28;952;-69
2023/10/25 10:31:11;;;;;;;;;;;;;;;18.24;58.40;97809.81;10331438;28;1921;-71
2023/10/25 10:36:07;;;;;;;;;;;;;;;18.24;58.46;97798.44;10331809;28;799;-71
2023/10/25 10:41:03;;;;;;;;;;;;;;;18.23;58.43;97807.28;10331571;28;949;-71
2023/10/25 10:45:59;;;;;;;;;;;;;;;18.25;58.38;97803.59;10331450;28;1033;-70
2023/10/25 10:50:55;;;;;;;;;;;;;;;18.38;58.06;97791.13;10331201;28;1902;-70
2023/10/25 10:55:51;;;;;;;;;;;;;;;18.43;58.05;97788.16;10331877;28;830;-71
2023/10/25 11:00:47;;;;;;;;;;;;;;;18.37;58.24;97773.66;10330972;28;769;-72
2023/10/25 11:05:43;;;;;;;;;;;;;;;18.36;58.39;97774.59;10330756;28;783;-68
2023/10/25 11:10:39;;;;;;;;;;;;;;;18.38;58.28;97764.75;10331704;28;1894;-71
2023/10/25 11:15:35;;;;;;;;;;;;;;;18.35;58.47;97758.91;10330310;28;878;-70
2023/10/25 11:20:30;;;;;;;;;;;;;;;18.33;58.69;97752.91;10330196;28;890;-71
2023/10/25 11:25:26;;;;;;;;;;;;;;;18.36;58.45;97734.19;10329296;28;896;-71
2023/10/25 11:30:22;;;;;;;;;;;;;;;18.35;58.57;97736.00;10329556;28;1917;-71
2023/10/25 11:35:18;;;;;;;;;;;;;;;18.32;58.62;97719.56;10330259;28;901;-69
2023/10/25 11:40:14;;;;;;;;;;;;;;;18.35;58.45;97704.34;10329491;28;811;-71
2023/10/25 11:45:10;;;;;;;;;;;;;;;18.38;58.54;97696.19;10330037;28;861;-71
2023/10/25 11:50:06;;;;;;;;;;;;;;;18.36;58.77;97690.19;10329031;28;884;-71
2023/10/25 11:55:03;;;;;;;;;;;;;;;18.32;58.92;97674.75;10328633;28;814;-70
2023/10/25 11:59:59;;;;;;;;;;;;;;;18.34;58.90;97663.13;10329567;28;1000;-71
2023/10/25 12:04:54;;;;;;;;;;;;;;;18.35;58.71;97662.13;10329366;28;877;-70
2023/10/25 12:09:50;;;;;;;;;;;;;;;18.35;58.64;97643.69;10327983;28;795;-70
2023/10/25 12:14:46;;;;;;;;;;;;;;;18.33;58.61;97634.22;10328260;28;1889;-70
2023/10/25 12:19:42;;;;;;;;;;;;;;;18.36;58.72;97636.59;10328138;28;1060;-70
2023/10/25 12:24:38;;;;;;;;;;;;;;;18.35;58.73;97632.28;10327404;28;763;-70
2023/10/25 12:29:34;;;;;;;;;;;;;;;18.33;58.71;97616.59;10328000;28;1368;-70
2023/10/25 12:34:30;;;;;;;;;;;;;;;18.34;58.69;97604.25;10326177;28;1906;-70
2023/10/25 12:39:26;;;;;;;;;;;;;;;18.35;58.47;97601.47;10326806;28;881;-71
2023/10/25 12:44:22;;;;;;;;;;;;;;;18.35;58.71;97598.84;10326591;28;779;-70
2023/10/25 12:49:18;;;;;;;;;;;;;;;18.30;58.86;97587.00;10326300;28;893;-70
2023/10/25 12:54:14;;;;;;;;;;;;;;;18.30;58.78;97592.25;10326074;28;1890;-70
2023/10/25 12:59:10;;;;;;;;;;;;;;;18.35;58.36;97583.03;10326669;28;865;-70
2023/10/25 13:04:06;;;;;;;;;;;;;;;18.34;58.32;97576.06;10325962;28;762;-70
2023/10/25 13:09:02;;;;;;;;;;;;;;;18.34;58.42;97569.97;10326341;28;881;-70
2023/10/25 13:13:58;;;;;;;;;;;;;;;18.35;58.46;97561.09;10325534;28;1894;-70
2023/10/25 13:18:54;;;;;;;;;;;;;;;18.36;58.19;97547.75;10326179;28;851;-70
2023/10/25 13:23:50;;;;;;;;;;;;;;;18.35;58.32;97534.72;10325471;28;746;-70
2023/10/25 13:28:46;;;;;;;;;;;;;;;18.37;58.27;97522.25;10325009;28;890;-70
2023/10/25 13:33:42;;;;;;;;;;;;;;;18.37;58.16;97512.53;10325465;28;1979;-70
2023/10/25 13:38:38;;;;;;;;;;;;;;;18.38;58.27;97501.00;10325133;28;826;-70
2023/10/25 13:43:39;;;;;;;;;;;;;;;18.36;58.27;97494.19;10324782;28;825;-70
2023/10/25 13:48:35;;;;;;;;;;;;;;;18.37;58.31;97478.25;10325015;28;790;-70
2023/10/25 13:53:31;;;;;;;;;;;;;;;18.39;58.33;97475.47;10324765;28;1961;-72
2023/10/25 13:58:26;;;;;;;;;;;;;;;18.35;58.42;97474.06;10325346;28;893;-72
2023/10/25 14:03:24;;;;;;;;;;;;;;;18.35;58.39;97474.06;10324528;28;979;-71
2023/10/25 14:08:20;;;;;;;;;;;;;;;18.39;58.32;97471.06;10325213;28;842;-71
2023/10/25 14:13:16;;;;;;;;;;;;;;;18.39;58.42;97464.91;10324361;28;1894;-71
2023/10/25 14:18:12;;;;;;;;;;;;;;;18.38;58.45;97453.53;10324949;28;829;-71
2023/10/25 14:23:08;;;;;;;;;;;;;;;18.38;58.38;97450.06;10324775;28;878;-71
2023/10/25 14:28:04;;;;;;;;;;;;;;;18.39;58.44;97449.94;10324740;28;936;-70
2023/10/25 14:32:59;;;;;;;;;;;;;;;18.39;58.14;97433.25;10324737;28;1913;-71
2023/10/25 14:37:55;;;;;;;;;;;;;;;18.39;58.23;97438.53;10324044;28;992;-69
2023/10/25 14:42:51;;;;;;;;;;;;;;;18.36;58.65;97433.53;10324230;28;810;-72
2023/10/25 14:47:47;;;;;;;;;;;;;;;18.37;58.53;97429.94;10324118;28;964;-70
2023/10/25 14:52:43;;;;;;;;;;;;;;;18.36;58.50;97420.34;10323331;28;1961;-71
2023/10/25 14:57:39;;;;;;;;;;;;;;;18.34;58.58;97406.47;10329368;28;896;-71
2023/10/25 15:02:35;;;;;;;;;;;;;;;18.34;58.56;97409.09;10330360;28;1222;-71
2023/10/25 15:07:33;;;;;;;;;;;;;;;18.34;58.58;97386.19;10330810;28;971;-70
2023/10/25 15:12:29;;;;;;;;;;;;;;;18.33;58.45;97388.94;10330490;28;1949;-71
2023/10/25 15:17:25;;;;;;;;;;;;;;;18.31;58.33;97378.53;10330425;28;818;-71
2023/10/25 15:22:21;;;;;;;;;;;;;;;18.32;58.39;97372.28;10330849;28;904;-72
2023/10/25 15:27:17;;;;;;;;;;;;;;;18.39;58.51;97356.78;10330641;28;822;-71
2023/10/25 15:32:13;;;;;;;;;;;;;;;18.43;58.54;97352.09;10329648;28;1914;-71
2023/10/25 15:37:09;;;;;;;;;;;;;;;18.41;58.74;97341.66;10329711;28;864;-71
2023/10/25 15:42:04;;;;;;;;;;;;;;;18.37;58.69;97340.25;10329496;28;814;-71
2023/10/25 15:47:00;;;;;;;;;;;;;;;18.35;58.71;97339.56;10329294;28;882;-71
2023/10/25 15:51:56;;;;;;;;;;;;;;;18.32;58.79;97337.19;10329226;28;1901;-71
2023/10/25 15:56:53;;;;;;;;;;;;;;;18.26;58.92;97333.25;10328893;28;889;-71
2023/10/25 16:01:49;;;;;;;;;;;;;;;18.26;58.92;97327.97;10328249;28;1027;-71
2023/10/25 16:06:45;;;;;;;;;;;;;;;18.27;59.15;97331.44;10315002;28;1095;-71
2023/10/25 16:11:40;;;;;;;;;;;;;;;18.27;59.02;97318.25;10287994;28;1898;-70
2023/10/25 16:16:36;;;;;;;;;;;;;;;18.27;58.86;97310.34;10288133;28;877;-70
2023/10/25 16:21:32;;;;;;;;;;;;;;;18.30;59.01;97310.09;10287037;28;823;-70
2023/10/25 16:26:28;;;;;;;;;;;;;;;18.29;58.80;97300.53;10286915;28;858;-70
2023/10/25 16:31:24;;;;;;;;;;;;;;;18.29;58.80;97300.53;10286707;28;1906;-70
2023/10/25 16:36:21;;;;;;;;;;;;;;;18.32;58.83;97294.97;10286561;28;886;-70
2023/10/25 16:41:17;;;;;;;;;;;;;;;18.33;58.70;97296.66;10287153;28;958;-70
2023/10/25 16:46:12;;;;;;;;;;;;;;;18.33;58.69;97294.00;10286781;28;842;-70
2023/10/25 16:51:09;;;;;;;;;;;;;;;18.36;58.61;97297.22;10285647;28;1894;-70
2023/10/25 16:56:06;;;;;;;;;;;;;;;18.35;58.50;97295.53;10286563;28;948;-73
2023/10/25 17:01:02;;;;;;;;;;;;;;;18.36;58.51;97291.09;10286672;28;918;-71
2023/10/25 17:05:57;;;;;;;;;;;;;;;18.39;58.56;97290.84;10286329;28;869;-70
2023/10/25 17:10:53;;;;;;;;;;;;;;;18.38;58.48;97294.47;10286506;28;1961;-71
2023/10/25 17:15:49;;;;;;;;;;;;;;;18.40;58.69;97297.81;10285253;28;892;-70
2023/10/25 17:20:45;;;;;;;;;;;;;;;18.46;58.43;97293.81;10284614;28;767;-70
2023/10/25 17:25:41;;;;;;;;;;;;;;;18.44;58.53;97293.91;10285129;28;950;-70
2023/10/25 17:30:38;;;;;;;;;;;;;;;18.44;58.54;97293.91;10284974;28;1918;-70
2023/10/25 17:35:34;;;;;;;;;;;;;;;18.44;58.65;97293.09;10284671;28;881;-70
2023/10/25 17:40:30;;;;;;;;;;;;;;;18.45;58.68;97294.78;10285382;28;929;-70
2023/10/25 17:45:26;;;;;;;;;;;;;;;18.47;58.60;97285.78;10284687;28;826;-70
2023/10/25 17:50:22;;;;;;;;;;;;;;;18.45;58.51;97292.97;10284908;28;1893;-70
2023/10/25 17:55:18;;;;;;;;;;;;;;;18.45;58.61;97287.69;10284393;28;967;-70
2023/10/25 18:00:14;;;;;;;;;;;;;;;18.48;58.67;97290.06;10284246;28;923;-70
2023/10/25 18:05:10;;;;;;;;;;;;;;;18.46;58.67;97281.44;10284727;28;830;-71
2023/10/25 18:10:06;;;;;;;;;;;;;;;18.45;58.60;97277.16;10283473;28;846;-70
2023/10/25 18:15:04;;;;;;;;;;;;;;;18.46;58.79;97278.81;10300693;28;1889;-70
2023/10/25 18:20:00;;;;;;;;;;;;;;;18.46;58.73;97273.53;10322942;28;1033;-71
2023/10/25 18:24:57;;;;;;;;;;;;;;;18.48;58.58;97268.13;10324489;28;888;-70
2023/10/25 18:29:53;;;;;;;;;;;;;;;18.47;58.56;97269.94;10325738;28;1219;-70
2023/10/25 18:34:48;;;;;;;;;;;;;;;18.50;58.50;97260.94;10331183;28;1925;-70
2023/10/25 18:39:44;;;;;;;;;;;;;;;18.51;58.46;97262.59;10329766;28;1105;-70
2023/10/25 18:44:41;;;;;;;;;;;;;;;18.48;58.72;97258.41;10330562;28;826;-70
2023/10/25 18:49:40;;;;;;;;;;;;;;;18.49;58.76;97259.25;10331273;28;832;-70
2023/10/25 18:54:36;;;;;;;;;;;;;;;18.51;58.66;97255.50;10330036;28;1890;-71
2023/10/25 18:59:32;;;;;;;;;;;;;;;18.52;58.65;97251.94;10330883;28;880;-70
2023/10/25 19:04:28;;;;;;;;;;;;;;;18.51;58.66;97266.06;10330403;28;921;-71
2023/10/25 19:09:24;;;;;;;;;;;;;;;18.56;58.61;97261.22;10331021;28;959;-70
2023/10/25 19:14:19;;;;;;;;;;;;;;;18.58;58.66;97256.66;10329474;28;2000;-70
2023/10/25 19:19:16;;;;;;;;;;;;;;;18.58;58.84;97261.13;10329964;28;855;-70
2023/10/25 19:24:12;;;;;;;;;;;;;;;18.55;58.92;97272.75;10330073;28;875;-70
2023/10/25 19:29:08;;;;;;;;;;;;;;;18.53;58.71;97279.13;10328607;28;1184;-70
2023/10/25 19:34:04;;;;;;;;;;;;;;;18.53;58.72;97276.50;10329494;28;1971;-70
2023/10/25 19:39:00;;;;;;;;;;;;;;;18.58;58.72;97284.84;10328690;28;869;-70
2023/10/25 19:43:56;;;;;;;;;;;;;;;18.54;58.78;97280.78;10328564;28;815;-71
2023/10/25 19:48:52;;;;;;;;;;;;;;;18.50;58.80;97288.16;10328815;28;813;-70
2023/10/25 19:53:48;;;;;;;;;;;;;;;18.49;58.88;97296.19;10328396;28;1943;-70
2023/10/25 19:58:44;;;;;;;;;;;;;;;18.45;59.08;97294.78;10329023;28;938;-71
2023/10/25 20:03:41;;;;;;;;;;;;;;;18.43;58.96;97292.25;10327544;28;853;-71
2023/10/25 20:08:37;;;;;;;;;;;;;;;18.40;59.11;97289.88;10327936;28;949;-71
2023/10/25 20:13:33;;;;;;;;;;;;;;;18.37;59.00;97295.44;10327675;28;1953;-71
2023/10/25 20:18:29;;;;;;;;;;;;;;;18.32;59.12;97303.72;10327991;28;834;-70
2023/10/25 20:23:25;;;;;;;;;;;;;;;18.29;59.47;97311.91;10328098;28;817;-70
2023/10/25 20:28:20;;;;;;;;;;;;;;;18.27;59.29;97305.09;10327511;28;826;-70
2023/10/25 20:33:17;;;;;;;;;;;;;;;18.22;59.42;97302.81;10327453;28;1910;-70
2023/10/25 20:38:13;;;;;;;;;;;;;;;18.21;59.07;97302.94;10326257;28;1104;-73
2023/10/25 20:43:10;;;;;;;;;;;;;;;18.16;59.17;97306.81;10326765;28;968;-73
2023/10/25 20:48:06;;;;;;;;;;;;;;;18.14;59.34;97314.00;10326469;28;944;-73
2023/10/25 20:53:02;;;;;;;;;;;;;;;18.14;59.19;97316.66;10325548;28;1956;-73
2023/10/25 20:57:58;;;;;;;;;;;;;;;18.09;59.14;97310.09;10326306;28;884;-74
2023/10/25 21:02:55;;;;;;;;;;;;;;;18.04;59.34;97323.66;10326270;28;909;-74
2023/10/25 21:07:51;;;;;;;;;;;;;;;17.98;59.58;97332.06;10326730;28;852;-75
2023/10/25 21:12:47;;;;;;;;;;;;;;;17.95;59.71;97330.53;10326035;28;1894;-72
2023/10/25 21:17:43;;;;;;;;;;;;;;;17.84;59.36;97327.94;10325621;28;868;-72
2023/10/25 21:22:39;;;;;;;;;;;;;;;17.82;59.30;97336.94;10326389;28;875;-71
2023/10/25 21:27:35;;;;;;;;;;;;;;;17.80;59.58;97336.22;10326623;28;904;-71
2023/10/25 21:32:31;;;;;;;;;;;;;;;17.69;59.90;97340.53;10324888;28;1906;-71
2023/10/25 21:37:26;;;;;;;;;;;;;;;17.66;59.95;97345.22;10326395;28;881;-72
2023/10/25 21:42:22;;;;;;;;;;;;;;;17.62;59.60;97351.69;10325416;28;873;-73
2023/10/25 21:47:18;;;;;;;;;;;;;;;17.61;59.79;97363.19;10325011;28;819;-73
2023/10/25 21:52:14;;;;;;;;;;;;;;;17.58;59.97;97366.91;10325526;28;1898;-73
2023/10/25 21:57:10;;;;;;;;;;;;;;;17.57;60.15;97367.84;10325727;28;783;-73
2023/10/25 22:02:06;;;;;;;;;;;;;;;17.54;60.01;97368.09;10325015;28;796;-73
2023/10/25 22:07:02;;;;;;;;;;;;;;;17.52;60.12;97370.00;10332716;28;818;-73
2023/10/25 22:11:58;;;;;;;;;;;;;;;17.50;59.88;97372.78;10332919;28;1902;-73
2023/10/25 22:16:54;;;;;;;;;;;;;;;17.47;60.05;97373.00;10332924;28;947;-73
2023/10/25 22:21:49;;;;;;;;;;;;;;;17.47;60.04;97374.81;10332639;28;829;-73
2023/10/25 22:26:47;;;;;;;;;;;;;;;17.46;59.81;97378.41;10332459;28;834;-73
2023/10/25 22:31:43;;;;;;;;;;;;;;;17.43;60.07;97378.66;10332328;28;1898;-72
2023/10/25 22:36:47;;;;;;;;;;;;;;;17.41;59.99;97388.47;10331523;28;802;-73
2023/10/25 22:41:46;;;;;;;;;;;;;;;17.41;60.12;97393.72;10331862;28;861;-72
2023/10/25 22:46:41;;;;;;;;;;;;;;;17.40;60.28;97403.44;10331593;28;876;-73
2023/10/25 22:51:37;;;;;;;;;;;;;;;17.39;60.27;97414.06;10332036;28;1890;-73
2023/10/25 22:56:33;;;;;;;;;;;;;;;17.39;60.07;97427.25;10331293;28;912;-73
2023/10/25 23:01:29;;;;;;;;;;;;;;;17.38;60.14;97436.13;10331179;28;852;-73
2023/10/25 23:06:25;;;;;;;;;;;;;;;17.35;59.98;97434.56;10330940;28;826;-73
2023/10/25 23:11:21;;;;;;;;;;;;;;;17.34;60.18;97430.22;10331890;28;1890;-72
2023/10/25 23:16:17;;;;;;;;;;;;;;;17.32;60.23;97432.16;10329069;28;920;-72
2023/10/25 23:21:12;;;;;;;;;;;;;;;17.33;60.22;97439.09;10331077;28;881;-73
2023/10/25 23:26:08;;;;;;;;;;;;;;;17.31;60.27;97435.75;10331017;28;838;-73
2023/10/25 23:31:05;;;;;;;;;;;;;;;17.28;60.31;97436.81;10328982;28;1976;-72
2023/10/25 23:36:00;;;;;;;;;;;;;;;17.28;60.09;97446.50;10330329;28;802;-73
2023/10/25 23:40:56;;;;;;;;;;;;;;;17.26;60.38;97457.16;10329052;28;905;-73
2023/10/25 23:45:52;;;;;;;;;;;;;;;17.25;60.37;97468.66;10329486;28;759;-73
2023/10/25 23:50:48;;;;;;;;;;;;;;;17.23;60.47;97460.03;10329093;28;1949;-72
2023/10/25 23:55:44;;;;;;;;;;;;;;;17.22;60.31;97478.59;10329054;28;787;-72
